Time;durP1;ratioP1;P1;durP2;ratioP2;P2;SDS_P1;SDS_P2;PMS_P1;PMS_P2;Temp;Humidity;BMP_temperature;BMP_pressure;BME280_temperature;BME280_humidity;BME280_pressure;Samples;Min_cycle;Max_cycle;Signal;HPM_P1;HPM_P2
2024/02/27 00:02:00;;;;;;;1.30;1.15;;;8.40;99.90;;;;;;5007990;28;20212;-74
2024/02/27 00:04:28;;;;;;;3.55;1.25;;;8.40;99.90;;;;;;5005949;28;20821;-74
2024/02/27 00:06:55;;;;;;;1.30;1.20;;;8.30;99.90;;;;;;5004272;28;20210;-74
2024/02/27 00:09:22;;;;;;;1.55;1.27;;;8.30;99.90;;;;;;5003131;28;20263;-74
2024/02/27 00:11:50;;;;;;;2.08;1.40;;;8.30;99.90;;;;;;5005103;28;20626;-74
2024/02/27 00:14:16;;;;;;;1.17;1.08;;;8.30;99.90;;;;;;5004656;28;20229;-74
2024/02/27 00:16:43;;;;;;;1.10;0.93;;;8.30;99.90;;;;;;5008835;28;20306;-74
2024/02/27 00:19:10;;;;;;;1.65;1.48;;;8.30;99.90;;;;;;5003949;28;20726;-74
2024/02/27 00:21:38;;;;;;;1.20;1.00;;;8.30;99.90;;;;;;5009234;28;20203;-74
2024/02/27 00:24:05;;;;;;;1.75;1.10;;;8.30;99.90;;;;;;5004064;28;20233;-74
2024/02/27 00:26:32;;;;;;;1.42;1.33;;;8.30;99.90;;;;;;5004879;28;20212;-74
2024/02/27 00:28:59;;;;;;;1.30;1.20;;;8.30;99.90;;;;;;5007391;28;20204;-74
2024/02/27 00:31:25;;;;;;;2.08;1.15;;;8.30;99.90;;;;;;5006942;28;20204;-74
2024/02/27 00:33:52;;;;;;;2.08;1.30;;;8.30;99.90;;;;;;5007412;28;20285;-74
2024/02/27 00:36:19;;;;;;;1.20;1.05;;;8.20;99.90;;;;;;5007610;28;20207;-74
2024/02/27 00:38:47;;;;;;;2.42;1.40;;;8.20;99.90;;;;;;5003897;28;20234;-74
2024/02/27 00:41:14;;;;;;;1.10;1.00;;;8.20;99.90;;;;;;5007245;28;20605;-75
2024/02/27 00:43:41;;;;;;;1.80;1.40;;;8.20;99.90;;;;;;5009526;28;20234;-75
2024/02/27 00:46:08;;;;;;;1.30;1.10;;;8.10;99.90;;;;;;5006943;28;20587;-74
2024/02/27 00:48:35;;;;;;;1.20;1.00;;;8.10;99.90;;;;;;5003206;28;20210;-74
2024/02/27 00:51:01;;;;;;;1.60;1.10;;;8.10;99.90;;;;;;5008307;28;20229;-74
2024/02/27 00:53:28;;;;;;;2.38;1.05;;;8.10;99.90;;;;;;5008022;28;20229;-74
2024/02/27 00:55:56;;;;;;;1.58;1.20;;;8.10;99.90;;;;;;5009580;28;20218;-74
2024/02/27 00:58:23;;;;;;;1.38;1.23;;;8.10;99.90;;;;;;5007345;28;20233;-74
2024/02/27 01:00:50;;;;;;;1.83;1.30;;;8.00;99.90;;;;;;5007922;28;20205;-74
2024/02/27 01:03:17;;;;;;;1.10;1.00;;;8.00;99.90;;;;;;5006060;28;20569;-74
2024/02/27 01:05:43;;;;;;;1.75;1.13;;;8.00;99.90;;;;;;5009579;28;20212;-74
2024/02/27 01:08:10;;;;;;;1.17;1.08;;;8.00;99.90;;;;;;5004722;28;20209;-74
2024/02/27 01:10:37;;;;;;;1.80;1.10;;;8.00;99.90;;;;;;5009414;28;20239;-74
2024/02/27 01:13:05;;;;;;;1.20;1.00;;;8.00;99.90;;;;;;5008549;28;20211;-74
2024/02/27 01:15:32;;;;;;;1.00;0.90;;;8.00;99.90;;;;;;5009274;28;20566;-74
2024/02/27 01:17:58;;;;;;;1.00;0.85;;;8.00;99.90;;;;;;5008055;28;20208;-74
2024/02/27 01:20:25;;;;;;;1.20;1.00;;;7.90;99.90;;;;;;5006646;28;20206;-74
2024/02/27 01:22:52;;;;;;;1.23;1.13;;;7.90;99.90;;;;;;5009565;28;20234;-74
2024/02/27 01:25:19;;;;;;;1.17;1.08;;;7.90;99.90;;;;;;5006788;28;20247;-74
2024/02/27 01:27:45;;;;;;;1.05;0.95;;;7.90;99.90;;;;;;5008382;28;20210;-74
2024/02/27 01:30:14;;;;;;;1.10;1.00;;;7.90;99.90;;;;;;5005749;28;20209;-74
2024/02/27 01:32:41;;;;;;;1.00;0.90;;;7.90;99.90;;;;;;5009825;28;20216;-74
2024/02/27 01:35:08;;;;;;;1.25;1.15;;;7.90;99.90;;;;;;5007817;28;20226;-74
2024/02/27 01:37:35;;;;;;;1.30;0.90;;;7.90;99.90;;;;;;4994859;28;20587;-74
2024/02/27 01:40:04;;;;;;;1.30;0.90;;;7.90;99.90;;;;;;5008206;28;20227;-74
2024/02/27 01:42:30;;;;;;;1.17;1.08;;;7.90;99.90;;;;;;5008145;28;20297;-74
2024/02/27 01:44:57;;;;;;;1.30;1.05;;;7.80;99.90;;;;;;5007989;28;20234;-74
2024/02/27 01:47:26;;;;;;;0.88;0.80;;;7.80;99.90;;;;;;5008597;28;20217;-74
2024/02/27 01:49:53;;;;;;;1.10;1.00;;;7.80;99.90;;;;;;5009506;28;20202;-74
2024/02/27 01:52:22;;;;;;;1.17;0.98;;;7.80;99.90;;;;;;5007213;28;20206;-74
2024/02/27 01:54:52;;;;;;;1.77;1.48;;;7.70;99.90;;;;;;5008969;28;20231;-74
2024/02/27 01:57:20;;;;;;;1.10;0.90;;;7.70;99.90;;;;;;5008941;28;20204;-74
2024/02/27 01:59:48;;;;;;;1.80;1.08;;;7.70;99.90;;;;;;5008775;28;20225;-74
2024/02/27 02:02:15;;;;;;;1.77;0.93;;;7.70;99.90;;;;;;5008003;28;20211;-74
2024/02/27 02:04:43;;;;;;;0.80;0.75;;;7.60;99.90;;;;;;5009389;28;20227;-73
2024/02/27 02:07:10;;;;;;;1.00;0.90;;;7.60;99.90;;;;;;5008879;28;20204;-74
2024/02/27 02:09:37;;;;;;;1.10;0.95;;;7.60;99.90;;;;;;5009747;28;20576;-74
2024/02/27 02:12:05;;;;;;;1.90;1.00;;;7.60;99.90;;;;;;5009641;28;20220;-75
2024/02/27 02:14:32;;;;;;;1.80;1.13;;;7.60;99.90;;;;;;5009945;28;20238;-74
2024/02/27 02:16:59;;;;;;;2.00;1.10;;;7.50;99.90;;;;;;5010072;28;20563;-74
2024/02/27 02:19:25;;;;;;;1.55;1.45;;;7.50;99.90;;;;;;5008384;28;20236;-75
2024/02/27 02:21:56;;;;;;;1.45;1.20;;;7.50;99.90;;;;;;5013264;28;20211;-74
2024/02/27 02:24:25;;;;;;;1.55;1.45;;;7.50;99.90;;;;;;5014780;28;20291;-74
2024/02/27 02:26:55;;;;;;;1.88;1.70;;;7.50;99.90;;;;;;5011640;28;20214;-75
2024/02/27 02:29:22;;;;;;;1.52;1.35;;;7.50;99.90;;;;;;5015236;28;20204;-74
2024/02/27 02:31:48;;;;;;;1.52;1.20;;;7.50;99.90;;;;;;5016913;28;20212;-74
2024/02/27 02:34:15;;;;;;;4.40;1.90;;;7.50;99.90;;;;;;5016084;28;20229;-74
2024/02/27 02:36:42;;;;;;;2.70;1.45;;;7.50;99.90;;;;;;5017236;28;20210;-74
2024/02/27 02:39:10;;;;;;;1.50;1.33;;;7.50;99.90;;;;;;5016247;28;20232;-74
2024/02/27 02:41:36;;;;;;;1.45;1.20;;;7.50;99.90;;;;;;5001876;28;20711;-74
2024/02/27 02:44:03;;;;;;;1.60;1.30;;;7.50;99.90;;;;;;5017281;28;20228;-74
2024/02/27 02:46:29;;;;;;;4.45;1.80;;;7.40;99.90;;;;;;5016641;28;20603;-74
2024/02/27 02:49:00;;;;;;;1.48;1.33;;;7.40;99.90;;;;;;5016645;28;20201;-74
2024/02/27 02:51:27;;;;;;;1.50;1.20;;;7.40;99.90;;;;;;5016724;28;20230;-74
2024/02/27 02:53:54;;;;;;;2.35;1.42;;;7.40;99.90;;;;;;5017370;28;20223;-74
2024/02/27 02:56:22;;;;;;;1.70;1.48;;;7.40;99.90;;;;;;4999276;28;20211;-74
2024/02/27 02:58:49;;;;;;;3.30;2.00;;;7.40;99.90;;;;;;4997477;28;20232;-74
2024/02/27 03:01:15;;;;;;;4.72;1.80;;;7.30;99.90;;;;;;4997427;28;20215;-74
2024/02/27 03:03:42;;;;;;;2.80;2.17;;;7.30;99.90;;;;;;4985467;28;20261;-74
2024/02/27 03:06:09;;;;;;;2.90;1.80;;;7.30;99.90;;;;;;4994618;28;20211;-74
2024/02/27 03:08:36;;;;;;;2.50;2.30;;;7.30;99.90;;;;;;4989600;28;20204;-74
2024/02/27 03:11:03;;;;;;;3.13;2.22;;;7.30;99.90;;;;;;4998104;28;20580;-75
2024/02/27 03:13:31;;;;;;;2.50;1.85;;;7.30;99.90;;;;;;4998356;28;20263;-74
2024/02/27 03:15:58;;;;;;;4.53;2.35;;;7.30;99.90;;;;;;4998627;28;20214;-74
2024/02/27 03:18:24;;;;;;;2.60;2.40;;;7.30;99.90;;;;;;4990428;28;20577;-74
2024/02/27 03:20:51;;;;;;;4.88;3.13;;;7.20;99.90;;;;;;4985794;28;20204;-75
2024/02/27 03:23:18;;;;;;;4.20;2.65;;;7.20;99.90;;;;;;4988490;28;20226;-74
2024/02/27 03:25:44;;;;;;;3.42;2.33;;;7.20;99.90;;;;;;4994303;28;20215;-74
2024/02/27 03:28:11;;;;;;;3.30;2.50;;;7.20;99.90;;;;;;5002749;28;20205;-74
2024/02/27 03:30:39;;;;;;;5.15;2.80;;;7.20;99.90;;;;;;4998315;28;20235;-74
2024/02/27 03:33:06;;;;;;;4.35;2.95;;;7.20;99.90;;;;;;4996537;28;20212;-74
2024/02/27 03:35:32;;;;;;;4.05;3.15;;;7.20;99.90;;;;;;4988442;28;20207;-74
2024/02/27 03:37:59;;;;;;;3.92;2.30;;;7.20;99.90;;;;;;4995539;28;20211;-74
2024/02/27 03:40:26;;;;;;;2.80;2.53;;;7.20;99.90;;;;;;4995887;28;20216;-74
2024/02/27 03:42:52;;;;;;;3.15;2.60;;;7.20;99.90;;;;;;4988182;28;20216;-74
2024/02/27 03:45:19;;;;;;;10.05;3.70;;;7.10;99.90;;;;;;4995803;28;20240;-75
2024/02/27 03:47:47;;;;;;;4.35;3.15;;;7.20;99.90;;;;;;4995521;28;20617;-74
2024/02/27 03:50:14;;;;;;;4.47;2.80;;;7.20;99.90;;;;;;4988496;28;20204;-74
2024/02/27 03:52:42;;;;;;;4.18;3.35;;;7.10;99.90;;;;;;5006436;28;20208;-74
2024/02/27 03:55:09;;;;;;;6.57;3.33;;;7.10;99.90;;;;;;4998060;28;20236;-74
2024/02/27 03:57:36;;;;;;;3.20;2.60;;;7.10;99.90;;;;;;4994958;28;20216;-75
2024/02/27 04:00:04;;;;;;;4.55;3.28;;;7.10;99.90;;;;;;4995345;28;20220;-75
2024/02/27 04:02:30;;;;;;;5.32;3.47;;;7.10;99.90;;;;;;4989287;28;20222;-74
2024/02/27 04:04:58;;;;;;;4.75;3.20;;;7.10;99.90;;;;;;4996031;28;20225;-74
2024/02/27 04:07:25;;;;;;;6.10;3.55;;;7.10;99.90;;;;;;4989629;28;20218;-74
2024/02/27 04:09:51;;;;;;;3.63;3.10;;;7.10;99.90;;;;;;4995419;28;20201;-74
2024/02/27 04:12:18;;;;;;;4.88;3.80;;;7.00;99.90;;;;;;4996347;28;20569;-74
2024/02/27 04:14:45;;;;;;;4.35;3.03;;;7.00;99.90;;;;;;4988449;28;20229;-74
2024/02/27 04:17:12;;;;;;;4.97;3.03;;;7.10;99.90;;;;;;4995860;28;20212;-74
2024/02/27 04:19:38;;;;;;;4.53;3.38;;;7.10;99.90;;;;;;4995435;28;20233;-74
2024/02/27 04:22:07;;;;;;;3.97;2.70;;;7.10;99.90;;;;;;4996001;28;20220;-74
2024/02/27 04:24:33;;;;;;;3.88;2.85;;;7.00;99.90;;;;;;4989639;28;20224;-74
2024/02/27 04:27:00;;;;;;;5.10;3.35;;;7.00;99.90;;;;;;4989298;28;20206;-75
2024/02/27 04:29:27;;;;;;;4.15;3.30;;;7.00;99.90;;;;;;4992066;28;20205;-74
2024/02/27 04:31:53;;;;;;;5.45;3.40;;;7.00;99.90;;;;;;4987393;28;20765;-75
2024/02/27 04:34:20;;;;;;;3.97;3.10;;;7.00;99.90;;;;;;4989604;28;20227;-74
2024/02/27 04:36:47;;;;;;;5.32;3.35;;;7.00;99.90;;;;;;4986583;28;20204;-74
2024/02/27 04:39:16;;;;;;;3.70;3.25;;;7.00;99.90;;;;;;4986548;28;20224;-74
2024/02/27 04:41:43;;;;;;;3.75;3.13;;;7.00;99.90;;;;;;4995216;28;20222;-75
2024/02/27 04:44:11;;;;;;;4.95;3.63;;;7.00;99.90;;;;;;4989160;28;20224;-76
2024/02/27 04:46:38;;;;;;;3.83;3.03;;;7.00;99.90;;;;;;4990220;28;20222;-74
2024/02/27 04:49:05;;;;;;;5.93;3.53;;;7.00;99.90;;;;;;4993011;28;20203;-75
2024/02/27 04:51:31;;;;;;;6.63;3.60;;;7.00;99.90;;;;;;4997240;28;20722;-75
2024/02/27 04:53:58;;;;;;;5.05;3.60;;;6.90;99.90;;;;;;4991499;28;20222;-74
2024/02/27 04:56:26;;;;;;;5.68;3.88;;;6.90;99.90;;;;;;4996316;28;20302;-74
2024/02/27 04:58:53;;;;;;;5.47;4.22;;;6.90;99.90;;;;;;4995860;28;20618;-74
2024/02/27 05:01:20;;;;;;;5.57;3.92;;;6.90;99.90;;;;;;4993368;28;20205;-73
2024/02/27 05:03:47;;;;;;;7.68;3.75;;;6.90;99.90;;;;;;4992568;28;20232;-74
2024/02/27 05:06:14;;;;;;;6.43;3.80;;;6.80;99.90;;;;;;4993866;28;20204;-73
2024/02/27 05:08:40;;;;;;;7.90;4.85;;;6.80;99.90;;;;;;4990326;28;20211;-73
2024/02/27 05:11:07;;;;;;;9.15;3.80;;;6.80;99.90;;;;;;4989946;28;20615;-74
2024/02/27 05:13:35;;;;;;;7.50;4.70;;;6.80;99.90;;;;;;4993733;28;20233;-74
2024/02/27 05:16:02;;;;;;;4.70;3.50;;;6.80;99.90;;;;;;4996836;28;20242;-76
2024/02/27 05:18:30;;;;;;;4.45;3.42;;;6.80;99.90;;;;;;4995693;28;20242;-76
2024/02/27 05:20:56;;;;;;;5.45;4.10;;;6.80;99.90;;;;;;4993467;28;20311;-73
2024/02/27 05:23:23;;;;;;;6.95;3.40;;;6.90;99.90;;;;;;5000446;28;21536;-72
2024/02/27 05:25:50;;;;;;;7.85;3.70;;;6.90;99.90;;;;;;4991349;28;20208;-79
2024/02/27 05:28:17;;;;;;;4.57;3.85;;;6.90;99.90;;;;;;4997034;28;20214;-76
2024/02/27 05:30:46;;;;;;;5.22;3.40;;;6.80;99.90;;;;;;4991797;28;20676;-74
2024/02/27 05:33:13;;;;;;;6.30;4.38;;;6.80;99.90;;;;;;4996366;28;20209;-74
2024/02/27 05:35:40;;;;;;;4.40;3.90;;;6.90;99.90;;;;;;4994229;28;20213;-74
2024/02/27 05:38:07;;;;;;;4.32;3.92;;;6.80;99.90;;;;;;4996875;28;20206;-76
2024/02/27 05:40:33;;;;;;;6.88;4.95;;;6.80;99.90;;;;;;4997936;28;20604;-74
2024/02/27 05:43:00;;;;;;;6.50;4.45;;;6.80;99.90;;;;;;4996881;28;20211;-75
2024/02/27 05:45:27;;;;;;;4.13;3.40;;;6.80;99.90;;;;;;4999053;28;20587;-74
2024/02/27 05:47:55;;;;;;;5.57;4.03;;;6.80;99.90;;;;;;4996872;28;20211;-74
2024/02/27 05:50:22;;;;;;;6.22;4.40;;;6.80;99.90;;;;;;4992171;28;20214;-75
2024/02/27 05:52:48;;;;;;;7.00;3.53;;;6.80;99.90;;;;;;5000407;28;20204;-74
2024/02/27 05:55:15;;;;;;;7.03;4.65;;;6.70;99.90;;;;;;5002359;28;20238;-74
2024/02/27 05:57:41;;;;;;;5.40;4.50;;;6.70;99.90;;;;;;4995765;28;20618;-73
2024/02/27 06:00:09;;;;;;;6.97;4.57;;;6.60;99.90;;;;;;4992664;28;20219;-76
2024/02/27 06:02:36;;;;;;;7.15;4.65;;;6.60;99.90;;;;;;4994759;28;20268;-76
2024/02/27 06:05:04;;;;;;;4.40;4.00;;;6.50;99.90;;;;;;4997538;28;20307;-76
2024/02/27 06:07:31;;;;;;;5.03;4.45;;;6.50;99.90;;;;;;5002842;28;20203;-77
2024/02/27 06:09:58;;;;;;;8.18;4.88;;;6.50;99.90;;;;;;5001156;28;20210;-76
2024/02/27 06:12:24;;;;;;;5.75;3.38;;;6.50;99.90;;;;;;5001171;28;20200;-76
2024/02/27 06:14:51;;;;;;;6.38;4.60;;;6.40;99.90;;;;;;5000538;28;20704;-75
2024/02/27 06:17:18;;;;;;;9.23;5.10;;;6.50;99.90;;;;;;4993228;28;20213;-76
2024/02/27 06:19:49;;;;;;;5.53;4.20;;;6.50;99.90;;;;;;4992112;28;20233;-75
2024/02/27 06:22:19;;;;;;;8.23;4.30;;;6.50;99.90;;;;;;4990733;28;20211;-75
2024/02/27 06:24:45;;;;;;;9.80;5.35;;;6.50;99.90;;;;;;4988733;28;20235;-76
2024/02/27 06:27:12;;;;;;;6.35;4.03;;;6.50;99.90;;;;;;5008322;28;20705;-74
2024/02/27 06:29:39;;;;;;;8.30;5.05;;;6.50;99.90;;;;;;4996889;28;20207;-76
2024/02/27 06:32:09;;;;;;;11.35;5.20;;;6.50;99.90;;;;;;4998171;28;20214;-76
2024/02/27 06:34:36;;;;;;;14.20;5.85;;;6.50;99.90;;;;;;4989848;28;20258;-74
2024/02/27 06:37:03;;;;;;;8.13;5.32;;;6.40;99.90;;;;;;4998212;28;20284;-76
2024/02/27 06:39:31;;;;;;;6.07;4.25;;;6.40;99.90;;;;;;4999932;28;20223;-74
2024/02/27 06:41:58;;;;;;;7.10;5.50;;;6.50;99.90;;;;;;4992817;28;20205;-77
2024/02/27 06:44:25;;;;;;;11.40;6.47;;;6.40;99.90;;;;;;5000221;28;20223;-76
2024/02/27 06:46:52;;;;;;;6.70;5.18;;;6.40;99.90;;;;;;5000924;28;20204;-77
2024/02/27 06:49:18;;;;;;;7.18;5.32;;;6.40;99.90;;;;;;4998933;28;20206;-75
2024/02/27 06:51:46;;;;;;;7.75;5.57;;;6.40;99.90;;;;;;5001172;28;20211;-76
2024/02/27 06:54:14;;;;;;;6.35;4.85;;;6.40;99.90;;;;;;4998417;28;20231;-76
2024/02/27 06:56:42;;;;;;;10.95;5.60;;;6.40;99.90;;;;;;5001584;28;20253;-77
2024/02/27 06:59:09;;;;;;;6.70;4.80;;;6.40;99.90;;;;;;4998781;28;20589;-76
2024/02/27 07:01:35;;;;;;;9.23;5.07;;;6.40;99.90;;;;;;4998929;28;20234;-75
2024/02/27 07:04:02;;;;;;;8.40;5.38;;;6.40;99.90;;;;;;4978747;28;20259;-75
2024/02/27 07:06:29;;;;;;;11.00;6.70;;;6.40;99.90;;;;;;4999627;28;20242;-75
2024/02/27 07:08:58;;;;;;;8.07;6.10;;;6.40;99.90;;;;;;4993661;28;20215;-75
2024/02/27 07:11:25;;;;;;;11.68;6.05;;;6.40;99.90;;;;;;5002208;28;20745;-76
2024/02/27 07:13:53;;;;;;;10.10;6.40;;;6.40;99.90;;;;;;5005211;28;20230;-77
2024/02/27 07:16:20;;;;;;;8.20;5.70;;;6.50;99.90;;;;;;4997062;28;20199;-76
2024/02/27 07:18:47;;;;;;;7.95;5.90;;;6.50;99.90;;;;;;4996382;28;20208;-76
2024/02/27 07:21:14;;;;;;;8.93;6.40;;;6.50;99.90;;;;;;5002909;28;20277;-77
2024/02/27 07:23:41;;;;;;;12.20;5.80;;;6.60;99.90;;;;;;5005436;28;20235;-77
2024/02/27 07:26:08;;;;;;;8.73;6.03;;;6.60;99.90;;;;;;5001800;28;20199;-77
2024/02/27 07:28:34;;;;;;;10.23;6.32;;;6.60;99.90;;;;;;5006234;28;20207;-76
2024/02/27 07:31:02;;;;;;;11.35;6.78;;;6.60;99.90;;;;;;5002094;28;20199;-76
2024/02/27 07:33:29;;;;;;;11.27;5.38;;;6.60;99.90;;;;;;4998695;28;20297;-76
2024/02/27 07:35:56;;;;;;;8.98;6.18;;;6.70;99.90;;;;;;5000010;28;20208;-76
2024/02/27 07:38:22;;;;;;;8.48;5.97;;;6.80;99.90;;;;;;4996582;28;20214;-75
2024/02/27 07:40:51;;;;;;;7.22;5.47;;;6.80;99.90;;;;;;5003693;28;20219;-75
2024/02/27 07:43:17;;;;;;;9.25;5.72;;;6.80;99.90;;;;;;4998814;28;20219;-75
2024/02/27 07:45:44;;;;;;;9.07;6.13;;;6.90;99.90;;;;;;5004572;28;20211;-75
2024/02/27 07:48:12;;;;;;;11.52;6.53;;;7.00;99.90;;;;;;5006469;28;20642;-76
2024/02/27 07:50:40;;;;;;;11.50;6.75;;;7.00;99.90;;;;;;4998338;28;20211;-75
2024/02/27 07:53:06;;;;;;;12.35;7.30;;;7.10;99.90;;;;;;5003186;28;20204;-76
2024/02/27 07:55:33;;;;;;;10.50;5.97;;;7.20;99.90;;;;;;5001685;28;20214;-76
2024/02/27 07:58:00;;;;;;;9.57;6.07;;;7.20;99.90;;;;;;5003341;28;20212;-76
2024/02/27 08:00:26;;;;;;;11.45;6.88;;;7.30;99.90;;;;;;4996177;28;20242;-76
2024/02/27 08:02:53;;;;;;;11.40;6.53;;;7.40;99.90;;;;;;4997878;28;20220;-76
2024/02/27 08:05:23;;;;;;;9.95;6.78;;;7.50;99.90;;;;;;4999408;28;20313;-76
2024/02/27 08:07:50;;;;;;;12.60;7.05;;;7.70;99.90;;;;;;5003985;28;20208;-75
2024/02/27 08:10:17;;;;;;;12.65;6.85;;;7.80;99.90;;;;;;4999543;28;20201;-76
2024/02/27 08:12:43;;;;;;;10.88;5.68;;;7.90;99.90;;;;;;5005399;28;20212;-75
2024/02/27 08:15:10;;;;;;;8.93;6.97;;;8.10;99.90;;;;;;4998531;28;20223;-76
2024/02/27 08:17:37;;;;;;;11.95;7.22;;;8.20;99.90;;;;;;5005802;28;20617;-76
2024/02/27 08:20:05;;;;;;;9.48;6.20;;;8.30;99.90;;;;;;5004748;28;20205;-77
2024/02/27 08:22:33;;;;;;;7.75;6.25;;;8.40;99.90;;;;;;4997615;28;20208;-76
2024/02/27 08:25:00;;;;;;;10.77;6.82;;;8.40;99.90;;;;;;4995486;28;20697;-76
2024/02/27 08:27:28;;;;;;;8.77;7.15;;;8.40;99.90;;;;;;5011120;28;20285;-78
2024/02/27 08:29:55;;;;;;;10.05;6.65;;;8.30;99.90;;;;;;5006576;28;20209;-75
2024/02/27 08:32:23;;;;;;;8.65;6.43;;;8.20;99.90;;;;;;4999934;28;20562;-76
2024/02/27 08:34:49;;;;;;;11.48;7.07;;;8.20;99.90;;;;;;5003669;28;20337;-75
2024/02/27 08:37:16;;;;;;;10.55;6.63;;;8.20;99.90;;;;;;4996811;28;20204;-76
2024/02/27 08:39:44;;;;;;;6.65;5.75;;;8.30;99.90;;;;;;5001433;28;20214;-76
2024/02/27 08:42:11;;;;;;;10.82;6.75;;;8.50;99.90;;;;;;4995422;28;20244;-76
2024/02/27 08:44:37;;;;;;;12.35;7.18;;;8.70;99.90;;;;;;5001974;28;20231;-75
2024/02/27 08:47:04;;;;;;;9.63;5.93;;;8.80;99.90;;;;;;4997786;28;20212;-75
2024/02/27 08:49:31;;;;;;;10.45;6.47;;;9.00;99.90;;;;;;5005192;28;20213;-75
2024/02/27 08:51:58;;;;;;;11.02;6.25;;;9.20;99.90;;;;;;4993110;28;20238;-75
2024/02/27 08:54:24;;;;;;;9.90;7.22;;;9.20;99.90;;;;;;4999280;28;20577;-73
2024/02/27 08:56:52;;;;;;;11.40;6.32;;;9.20;99.90;;;;;;5001043;28;20213;-74
2024/02/27 08:59:19;;;;;;;8.02;5.88;;;9.00;99.90;;;;;;5002398;28;20210;-75
2024/02/27 09:01:46;;;;;;;9.32;7.13;;;8.90;99.90;;;;;;5004499;28;20225;-76
2024/02/27 09:04:13;;;;;;;9.07;7.00;;;8.90;99.90;;;;;;4997223;28;20225;-75
2024/02/27 09:06:42;;;;;;;12.68;7.57;;;9.00;99.90;;;;;;4996906;28;20250;-76
2024/02/27 09:09:09;;;;;;;10.35;7.00;;;8.90;99.90;;;;;;4994804;28;20202;-76
2024/02/27 09:11:36;;;;;;;10.40;6.90;;;8.90;99.90;;;;;;4994597;28;20576;-76
2024/02/27 09:14:05;;;;;;;8.88;6.32;;;9.00;99.90;;;;;;4995194;28;20228;-75
2024/02/27 09:16:32;;;;;;;13.48;7.43;;;8.90;99.90;;;;;;5005001;28;20261;-75
2024/02/27 09:18:59;;;;;;;10.15;6.38;;;8.90;99.90;;;;;;4999911;28;20212;-74
2024/02/27 09:21:26;;;;;;;10.40;7.57;;;8.80;99.90;;;;;;5005341;28;20325;-74
2024/02/27 09:23:54;;;;;;;9.93;7.15;;;8.80;99.90;;;;;;5003387;28;20224;-74
2024/02/27 09:26:22;;;;;;;10.90;7.55;;;8.80;99.90;;;;;;5005255;28;20240;-75
2024/02/27 09:28:51;;;;;;;12.48;7.55;;;8.70;99.90;;;;;;4999646;28;20213;-74
2024/02/27 09:31:19;;;;;;;11.80;7.72;;;8.70;99.90;;;;;;4998715;28;20550;-74
2024/02/27 09:33:46;;;;;;;10.93;7.10;;;8.60;99.90;;;;;;4998045;28;20589;-74
2024/02/27 09:36:13;;;;;;;10.68;8.20;;;8.60;99.90;;;;;;4999526;28;20240;-74
2024/02/27 09:38:40;;;;;;;11.88;7.93;;;8.60;99.90;;;;;;4999404;28;20233;-74
2024/02/27 09:41:15;;;;;;;12.57;7.43;;;8.60;99.90;;;;;;4999168;28;20228;-74
2024/02/27 09:43:45;;;;;;;11.23;8.50;;;8.50;99.90;;;;;;4992667;28;20229;-75
2024/02/27 09:46:13;;;;;;;11.63;7.22;;;8.50;99.90;;;;;;4996956;28;20209;-74
2024/02/27 09:48:43;;;;;;;15.07;8.10;;;8.60;99.90;;;;;;4997726;28;20215;-74
2024/02/27 09:51:17;;;;;;;13.93;7.07;;;8.60;99.90;;;;;;4996366;28;20211;-75
2024/02/27 09:53:47;;;;;;;9.60;6.57;;;8.60;99.90;;;;;;5001574;28;20232;-75
2024/02/27 09:56:16;;;;;;;10.68;6.97;;;8.60;99.90;;;;;;5000182;28;20695;-75
2024/02/27 09:58:43;;;;;;;13.90;7.85;;;8.60;99.90;;;;;;5001489;28;20300;-75
2024/02/27 10:01:12;;;;;;;9.75;6.10;;;8.60;99.90;;;;;;5003905;28;20231;-75
2024/02/27 10:03:45;;;;;;;14.48;6.80;;;8.60;99.90;;;;;;5001500;28;20227;-75
2024/02/27 10:06:14;;;;;;;8.48;6.35;;;8.60;99.90;;;;;;5000512;28;20701;-74
2024/02/27 10:08:47;;;;;;;12.18;7.57;;;8.80;99.90;;;;;;5004513;28;20647;-75
2024/02/27 10:11:14;;;;;;;10.82;6.70;;;8.80;99.90;;;;;;5002860;28;20212;-75
2024/02/27 10:13:41;;;;;;;8.13;6.32;;;8.90;99.90;;;;;;4998893;28;20225;-75
2024/02/27 10:16:08;;;;;;;10.98;5.88;;;8.90;99.90;;;;;;5001598;28;20209;-75
2024/02/27 10:18:35;;;;;;;13.20;6.82;;;8.80;99.90;;;;;;5005729;28;20209;-75
2024/02/27 10:21:04;;;;;;;9.57;6.90;;;8.80;99.90;;;;;;5001572;28;20230;-75
2024/02/27 10:23:31;;;;;;;9.48;6.90;;;8.80;99.90;;;;;;4998527;28;20625;-74
2024/02/27 10:26:07;;;;;;;10.15;6.03;;;8.90;99.90;;;;;;4999141;28;20210;-74
2024/02/27 10:28:34;;;;;;;9.35;5.75;;;8.90;99.90;;;;;;4997893;28;20215;-74
2024/02/27 10:31:05;;;;;;;9.10;6.57;;;8.90;99.90;;;;;;5001649;28;20204;-74
2024/02/27 10:33:32;;;;;;;10.40;6.45;;;8.90;99.90;;;;;;5003485;28;20644;-75
2024/02/27 10:36:03;;;;;;;12.73;7.50;;;8.90;99.90;;;;;;4999138;28;20205;-77
2024/02/27 10:38:33;;;;;;;12.55;7.75;;;8.90;99.90;;;;;;5002633;28;21611;-76
2024/02/27 10:41:00;;;;;;;9.77;6.18;;;8.90;99.90;;;;;;5005643;28;20237;-76
2024/02/27 10:43:28;;;;;;;10.68;7.85;;;8.80;99.90;;;;;;5005016;28;20662;-74
2024/02/27 10:45:55;;;;;;;9.93;6.85;;;8.80;99.90;;;;;;5011008;28;20204;-76
2024/02/27 10:48:23;;;;;;;8.27;6.53;;;8.70;99.90;;;;;;5007380;28;20210;-75
2024/02/27 10:50:50;;;;;;;12.68;7.72;;;8.80;99.90;;;;;;5003269;28;20209;-75
2024/02/27 10:53:20;;;;;;;10.43;8.18;;;8.90;99.90;;;;;;5004572;28;20207;-76
2024/02/27 10:55:49;;;;;;;9.85;6.97;;;8.90;99.90;;;;;;5010387;28;20795;-77
2024/02/27 10:58:17;;;;;;;10.98;7.25;;;9.00;99.90;;;;;;5005118;28;20358;-74
2024/02/27 11:00:49;;;;;;;8.80;6.63;;;9.00;99.90;;;;;;5006124;28;20211;-75
2024/02/27 11:03:22;;;;;;;10.73;7.38;;;9.00;99.90;;;;;;5006831;28;20214;-77
2024/02/27 11:05:52;;;;;;;11.13;8.18;;;9.20;99.90;;;;;;5004497;28;20622;-75
2024/02/27 11:08:33;;;;;;;10.48;7.70;;;9.30;99.90;;;;;;5006894;28;20242;-75
2024/02/27 11:11:06;;;;;;;11.77;7.45;;;9.30;99.90;;;;;;5010525;28;20237;-76
2024/02/27 11:13:41;;;;;;;10.88;7.32;;;9.40;99.90;;;;;;5005222;28;20252;-76
2024/02/27 11:16:15;;;;;;;10.18;7.78;;;9.60;99.90;;;;;;5003205;28;20750;-76
2024/02/27 11:18:49;;;;;;;13.77;8.20;;;9.60;99.90;;;;;;4993553;28;20217;-76
2024/02/27 11:21:21;;;;;;;10.95;7.10;;;9.60;99.90;;;;;;5001803;28;20302;-76
2024/02/27 11:23:51;;;;;;;9.60;7.00;;;9.80;99.90;;;;;;5013095;28;20645;-76
2024/02/27 11:26:23;;;;;;;10.90;8.15;;;10.00;99.90;;;;;;5010219;28;20213;-76
2024/02/27 11:28:55;;;;;;;12.45;8.82;;;10.20;99.90;;;;;;5003575;28;20219;-77
2024/02/27 11:31:26;;;;;;;12.73;7.95;;;10.50;99.90;;;;;;5001880;28;20218;-76
2024/02/27 11:33:53;;;;;;;9.73;6.53;;;10.80;99.90;;;;;;5002669;28;20675;-74
2024/02/27 11:36:20;;;;;;;14.13;7.57;;;11.00;99.90;;;;;;5002040;28;21074;-74
2024/02/27 11:38:51;;;;;;;11.98;7.35;;;11.20;99.90;;;;;;5007180;28;20234;-75
2024/02/27 11:41:19;;;;;;;12.32;7.25;;;11.70;99.90;;;;;;5006831;28;20269;-75
2024/02/27 11:43:47;;;;;;;9.25;7.07;;;11.80;99.90;;;;;;5007176;28;20659;-75
2024/02/27 11:46:43;;;;;;;9.10;7.40;;;12.10;99.90;;;;;;5000780;28;20579;-75
2024/02/27 11:49:13;;;;;;;9.27;7.23;;;12.10;99.90;;;;;;5002685;28;20214;-75
2024/02/27 11:51:40;;;;;;;7.53;6.72;;;12.00;99.90;;;;;;4998584;28;20476;-75
2024/02/27 11:54:13;;;;;;;9.50;8.48;;;11.80;99.90;;;;;;5003035;28;20678;-75
2024/02/27 11:56:41;;;;;;;10.55;7.20;;;11.60;99.90;;;;;;4997209;28;20298;-75
2024/02/27 11:59:11;;;;;;;11.40;8.38;;;11.50;99.90;;;;;;5002206;28;20234;-75
2024/02/27 12:01:37;;;;;;;11.35;8.60;;;11.30;99.90;;;;;;4995243;28;20310;-75
2024/02/27 12:04:06;;;;;;;12.70;7.95;;;11.20;99.90;;;;;;5006747;28;20257;-75
2024/02/27 12:06:33;;;;;;;10.05;7.47;;;11.00;99.90;;;;;;5010632;28;20242;-75
2024/02/27 12:09:00;;;;;;;11.73;7.78;;;10.90;99.90;;;;;;5005166;28;20695;-75
2024/02/27 12:11:29;;;;;;;12.00;7.80;;;10.70;99.90;;;;;;5007702;28;20203;-73
2024/02/27 12:13:55;;;;;;;11.25;7.70;;;10.60;99.90;;;;;;5005097;28;20227;-76
2024/02/27 12:16:23;;;;;;;12.27;8.57;;;10.50;99.90;;;;;;5008296;28;20203;-79
2024/02/27 12:18:50;;;;;;;13.10;8.55;;;10.30;99.90;;;;;;5003305;28;20219;-74
2024/02/27 12:21:28;;;;;;;12.48;9.40;;;10.10;99.90;;;;;;5008076;28;20214;-76
2024/02/27 12:24:12;;;;;;;13.30;9.57;;;10.10;99.90;;;;;;5010078;28;20233;-76
2024/02/27 12:26:41;;;;;;;12.73;8.60;;;10.10;99.90;;;;;;4997497;28;20214;-76
2024/02/27 12:29:09;;;;;;;11.93;8.00;;;10.10;99.90;;;;;;5002247;28;20230;-76
2024/02/27 12:31:36;;;;;;;11.45;7.97;;;10.00;99.90;;;;;;4994047;28;20204;-76
2024/02/27 12:34:05;;;;;;;9.57;7.60;;;10.00;99.90;;;;;;5007207;28;20229;-77
2024/02/27 12:36:32;;;;;;;11.65;7.88;;;10.00;99.90;;;;;;5010523;28;20214;-76
2024/02/27 12:38:59;;;;;;;11.40;7.95;;;10.00;99.90;;;;;;5010420;28;20232;-76
2024/02/27 12:41:26;;;;;;;11.20;8.93;;;9.90;99.90;;;;;;5009471;28;20215;-77
2024/02/27 12:43:54;;;;;;;13.27;9.13;;;9.90;99.90;;;;;;5011456;28;20590;-76
2024/02/27 12:46:25;;;;;;;14.32;8.55;;;9.90;99.90;;;;;;5010525;28;20217;-77
2024/02/27 12:48:55;;;;;;;14.38;9.73;;;9.80;99.90;;;;;;5005905;28;20207;-77
2024/02/27 12:51:34;;;;;;;13.10;8.00;;;9.80;99.90;;;;;;5009854;28;20210;-78
2024/02/27 12:54:02;;;;;;;13.98;9.07;;;9.80;99.90;;;;;;5011257;28;20225;-76
2024/02/27 12:56:28;;;;;;;13.07;8.52;;;9.70;99.90;;;;;;5010546;28;20211;-76